Go Pro

VanEck Fallen Angel High Yield Bond ETF (ANGL) Institutional Ownership

VanEck Fallen Angel High Yield Bond ETF logo
$28.81 +0.04 (+0.14%)
As of 04:00 PM Eastern

Institutional Ownership Changes (13F Filings) for VanEck Fallen Angel High Yield Bond ETF (NASDAQ:ANGL)

Number of
Institutional Buyers
(last 12 months)
214
Total
Institutional Inflows
(last 12 months)
$427.50M
Number of
Institutional Sellers
(last 12 months)
111
Total
Institutional Outflows
(last 12 months)
$194.50M
Get ANGL Insider Trade Alerts

Want to know when executives and insiders are buying or selling VanEck Fallen Angel High Yield Bond ETF stock? Sign up for InsiderTrades.com's daily newsletter to get the latest insider transactions delivered to your inbox daily.

SMS is currently available in Australia, Belgium, Canada, France, Germany, Ireland, Italy, New Zealand, the Netherlands, Singapore, South Africa, Spain, Switzerland, the United Kingdom, and the United States. By entering your phone number and clicking the sign-up button, you agree to receive periodic text messages from MarketBeat at the phone number you submitted, including texts that may be sent using an automatic telephone dialing system. Message and data rates may apply. Message frequency will vary. Messages will consist of stock alerts, news stories, and partner advertisements/offers. Consent is not a condition of the purchase of any goods or services. Text HELP for help/customer support. Unsubscribe at any time by replying "STOP" to any text message that you receive from MarketBeat or by visiting our mailing preferences page. Read our full terms of service and privacy policy.
Skip Chart & View Institutional Buying and Selling Data

ANGL Institutional Buying and Selling by Quarter

VanEck Fallen Angel High Yield Bond ETF Major Shareholders & Ownership History

Reporting DateMajor Shareholder NameShares HeldMarket Value% of PortfolioQuarterly Change in SharesOwnership in CompanyDetails
9/2/2026Kinetic Wealth Investment Advisors LLC12,925$378K0.2%N/A0.012%
8/23/2026 Ameritas Advisory Services LLC3,154$92K0.0%N/A0.003%
8/23/2026 Melone Private Wealth LLC361,550$10.57M3.3%+0.3%0.343%
8/23/2026 Echo45 Advisors LLC172,838$5.05M2.6%+6.4%0.164%
8/22/2026 Compass Financial Management LLC2,808$82K0.0%N/A0.003%
8/22/2026 Markowski Investments4,925$144K0.0%N/A0.005%
8/12/2026 Compass Financial Management LLC2,808$82K0.0%N/A0.003%
7/10/2026 Accel Wealth Management115,605$3.38M0.8%-1.9%0.108%
7/10/2026 Ocean Park Asset Management LLC595,100$17.40M0.8%N/A0.558%
7/10/2026 Wealthcare Advisory Partners LLC708,131$20.71M0.4%+2.8%0.664%
7/9/2026 Ferguson Shapiro LLC113,980$3.33M1.0%N/A0.107%
7/9/2026 Melone Private Wealth LLC361,550$10.57M4.0%+0.3%0.339%
7/9/2026 Breakwater Capital Group122,499$3.58M0.4%+86.8%0.115%
7/7/2026 Paller Financial Services Inc43,430$1.27M0.9%+4.5%0.041%
7/7/2026 David J Yvars Group8,768$256K0.1%-41.8%0.008%
7/7/2026 Dynamic Advisor Solutions LLC9,658$282K0.0%-25.6%0.009%
7/7/2026 Howard Financial Services LTD.690,639$20.19M2.0%+3.2%0.648%
7/6/2026 Trilogy Capital Inc.63,246$1.85M0.1%+1.5%0.059%
6/10/2026 FAS Wealth Partners Inc.233,554$6.71M0.4%+0.5%0.223%
6/3/2026 NewEdge Advisors LLC81,787$2.35M0.0%+1.7%0.078%
5/21/2026 Kensington Asset Management LLC1,244,430$35.74M1.7%-10.8%1.186%
5/20/2026 Arete Wealth Advisors LLC19,049$547K0.0%-42.4%0.018%
5/19/2026 Western Wealth Management LLC1,714$49K0.0%N/A0.002%
5/19/2026 NewEdge Advisors LLC67,539$1.94M0.0%-16.0%0.064%
5/19/2026 Bank of America Corp DE18,198,661$522.67M0.0%-8.3%17.349%
5/19/2026 Graney & King LLC280,762$8.06M4.3%+5.7%0.268%
5/19/2026 Centaurus Financial Inc.14,657$421K0.0%N/A0.014%
5/19/2026 Arete Wealth Advisors LLC19,049$547K0.0%-42.4%0.018%
5/18/2026 Royal Bank of Canada123,157$3.54M0.0%+0.8%0.117%
5/15/2026 Waverly Advisors LLC57,889$1.66M0.0%-1.5%0.055%
5/14/2026 American Financial Advisors LLC493,740$14.18M1.9%-0.8%0.471%
5/14/2026 Lido Advisors LLC136,841$3.93M0.0%-24.0%0.130%
5/13/2026 Cetera Investment Advisers480,849$13.81M0.0%+8.3%0.458%
5/13/2026 Envision Financial Transparency LLC7,626$219K0.2%N/A0.007%
5/7/2026 Liberty Square Wealth Partners LLC18,597$534K0.1%-4.1%0.018%
5/7/2026 Hershey Financial Advisers LLC142,113$4.08M3.5%N/A0.135%
5/6/2026 Aviance Capital Partners LLC18,466$530K0.1%+8.6%0.018%
5/6/2026 Cornerstone Planning Group LLC11,772$343K0.0%-12.1%0.011%
5/6/2026 Assetmark Inc.2,928$84K0.0%-14.7%0.003%
5/6/2026 NovaPoint Capital LLC45,972$1.32M0.3%-2.0%0.044%
My top 3 AI picks for the next decade (Ad)

Alexander Green bought Apple in 1996, recommended Nvidia at a split-adjusted 66 cents in 2004, and picked up Amazon and Netflix under $3 per share in 2005. Now the chief investment strategist at The Oxford Club has identified three AI stocks he believes could be the most profitable investments of the next decade.tc pixel

Click here to get all three AI stock names from Alexander Green
5/6/2026 Smart Money Group LLC37,003$1.06M0.3%+72.5%0.035%
5/5/2026 Wealthfront Advisers LLC103,688$2.98M0.0%-11.9%0.099%
5/5/2026 Bank of New York Mellon Corp16,944$487K0.0%-6.5%0.016%
5/5/2026 Geneos Wealth Management Inc.30,792$884K0.0%+4.5%0.029%
5/5/2026 NFSG Corp7,377$212K0.0%+76.0%0.007%
5/5/2026 Sanctuary Advisors LLC41,538$1.19M0.0%+1.4%0.040%
5/5/2026 Sigma Planning Corp90,777$2.61M0.1%+4.6%0.087%
5/4/2026 HBW Advisory Services LLC12,078$347K0.0%+11.5%0.012%
5/4/2026 Sfam LLC89,011$2.56M2.4%+3.5%0.085%
5/1/2026 Kaizen Financial Strategies14,766$432K0.2%+4.5%0.014%
5/1/2026 Fifth Third Bancorp7,145$205K0.0%N/A0.007%
5/1/2026 Darwin Wealth Management LLC3,508$101K0.0%-19.3%0.003%
5/1/2026 Simplicity Wealth LLC11,223$322K0.0%-41.0%0.011%
5/1/2026 Conning Inc.233,570$6.71M0.2%+140.1%0.224%
4/30/2026 Mosaic Family Wealth Partners LLC155,455$4.47M0.5%+1.9%0.149%
4/30/2026 Kestra Advisory Services LLC41,433$1.19M0.0%-1.6%0.040%
4/30/2026 Money Concepts Capital Corp208,220$5.98M0.3%+4.0%0.200%
4/29/2026 Ascent Advisors LLC4,597$132K0.2%N/A0.004%
4/29/2026 Interactive Financial Advisors Inc.80,020$2.30M1.5%+1.7%0.077%
4/28/2026 NBT Bank N A NY198,572$5.70M0.4%+2,631.8%0.191%
4/28/2026 Paller Financial Services Inc41,563$1.19M1.0%-4.0%0.040%
4/27/2026 PFG Investments LLC11,266$324K0.0%+10.9%0.011%
4/27/2026 World Investment Advisors71,688$2.06M0.0%+102.2%0.069%
4/27/2026 Private Advisor Group LLC44,412$1.28M0.0%+14.1%0.043%
4/27/2026 Sound Income Strategies LLC67,001$1.93M0.1%+16.5%0.064%
4/25/2026 Axis Wealth Partners LLC40,584$1.17M0.6%+3.2%0.039%
4/25/2026 Eagle Bay Advisors LLC16,960$487K0.4%+3.6%0.016%
4/25/2026 Smithbridge Asset Management Inc. DE12,256$352K0.1%-55.8%0.012%
4/24/2026 Essex LLC17,458$501K0.1%-23.4%0.017%
4/23/2026 Etesian Wealth Advisors Inc.9,910$285K0.1%-12.2%0.010%
4/23/2026 Continuum Advisory LLC35,786$1.03M0.1%+4.8%0.034%
4/23/2026 Apollon Wealth Management LLC7,920$227K0.0%-7.9%0.008%
4/22/2026 Janney Montgomery Scott LLC433,373$12.45M0.0%+1,633.5%0.413%
4/22/2026 Cornerstone Wealth Group LLC21,359$625K0.0%-27.5%0.020%
4/22/2026 Nicholas Wealth LLC.14,716$423K0.3%N/A0.014%
4/22/2026 Trilogy Capital Inc.62,300$1.79M0.1%-4.2%0.059%
4/22/2026 Meridian Financial Advisors LLC11,176$321K0.2%+4.6%0.011%
4/21/2026 Towneley Capital Management Inc DE136,038$3.91M0.8%+2.6%0.130%
4/20/2026 Christensen King & Associates Investment Services Inc.19,276$554K0.2%+5.6%0.018%
4/20/2026 Kestra Private Wealth Services LLC325,035$9.34M0.1%+50.3%0.310%
4/20/2026 Breakwater Capital Group65,593$1.88M0.3%+4.8%0.063%
4/20/2026 Echo45 Advisors LLC162,413$4.67M2.6%+4.6%0.155%
4/20/2026 Blue Trust Inc.82,194$2.36M0.0%-11.2%0.078%
4/20/2026 RFG Advisory LLC45,952$1.32M0.0%+331.6%0.044%
4/18/2026 Burns J W & Co. Inc. NY75,090$2.16M0.2%+15.1%0.072%
4/18/2026 BCS Wealth Management20,581$591K0.1%-50.0%0.020%
4/17/2026 Total Clarity Wealth Management Inc.61,369$1.76M0.4%-3.6%0.059%
4/17/2026 Stewardship Advisors LLC134,695$3.87M0.9%+8.2%0.129%
4/16/2026 Sheets Smith Wealth Management31,615$908K0.1%+3.3%0.030%
4/16/2026 Founders Financial Securities LLC11,243$328K0.0%-4.8%0.011%
The end may be near for these iconic stocks (Ad)

Marc Chaikin, founder of Chaikin Analytics, says two forces - AI disruption and fracturing global trade - are triggering a historic wealth transfer already underway in 2026. Household names like Intuit (-57%), Boston Scientific (-49%), and Tractor Supply (-40%) are cratering, while lesser-known companies like Sandisk (+573%) and Rackspace (+444%) surge. Chaikin has identified specific stocks he believes investors should sell before they fall further - and the names may surprise you. He's also pinpointing a company tapped as Nvidia's self-driving partner and a potential AI megadeal that could split into three high-growth stocks. Stream his free presentation to get every buy and sell recommendation with no membership or credit card required.tc pixel

Watch Marc Chaikin's free presentation and get his full buy-and-sell list today
3/17/2026 Rockefeller Capital Management L.P.49,739$1.46M0.0%+124.7%0.047%
3/13/2026 World Investment Advisors35,448$1.04M0.0%+39.2%0.034%
3/5/2026 Storen Legacy Partners LLC569,702$16.73M5.2%N/A0.539%
3/4/2026 SHP Wealth Management3,346$98K0.0%N/A0.003%
2/23/2026 Monetary Solutions Ltd4,653$137K0.1%N/A0.004%
2/19/2026 ATX Financial Planning LLC19,830$582K0.4%N/A0.019%
2/18/2026 Virtue Capital Management LLC12,143$357K0.0%-71.4%0.011%
2/18/2026 FAS Wealth Partners Inc.232,375$6.82M0.4%+4.1%0.220%
2/18/2026 NewEdge Advisors LLC80,426$2.36M0.0%+12.7%0.076%
2/18/2026 Quadrature Capital Ltd27,036$794K0.0%N/A0.026%


ANGL Institutional Ownership - Frequently Asked Questions

During the previous two years, 387 institutional investors and hedge funds held shares of VanEck Fallen Angel High Yield Bond ETF. The most heavily invested institutionals were Bank of America Corp DE ($522.67M), State of Tennessee Department of Treasury ($147.06M), LPL Financial LLC ($128.90M), Capital Investment Advisors LLC ($107.42M), Cerity Partners LLC ($97.93M), Southern Farm Bureau Life Insurance ($76.05M), and Morgan Stanley ($75.43M).Learn more on VanEck Fallen Angel High Yield Bond ETF's institutional investors.

Of the 344 institutional investors that purchased VanEck Fallen Angel High Yield Bond ETF's stock in the last 24 months, the following investors and hedge funds have bought the highest volume of shares: Bank of America Corp DE ($2.18M), Raymond James Financial Inc. ($1.71M), Southern Farm Bureau Life Insurance ($1.36M), Ameriprise Financial Inc. ($1.00M), Wells Fargo & Company MN ($883.81K), Capital Investment Advisors LLC ($848.83K), and Ocean Park Asset Management LLC ($730.90K).

Institutional investors have bought a total of 14,525,316 shares in the last 24 months. This purchase volume represents approximately $427.50M in transactions.

Of the 111 institutional investors that sold VanEck Fallen Angel High Yield Bond ETF's stock in the last 24 months, the following investors and hedge funds have sold the highest volume of shares: Bank of America Corp DE ($1.66M), Integrated Wealth Concepts LLC ($711.66K), Ameriprise Financial Inc. ($628.99K), Horizon Investments LLC ($468.19K), Goldman Sachs Group Inc. ($319.60K), Evergreen Capital Management LLC ($254.08K), and UBS Group AG ($249.08K).

Institutional investors have sold a total of 6,645,273 shares in the last 24 months. This volume of shares sold represents approximately $194.50M in transactions.



Institutional ownership data for NASDAQ:ANGL is compiled from quarterly 13F filings submitted to the U.S. Securities and Exchange Commission (SEC), with the most recent received on 9/2/2026. New 13F filings are added each quarter as they're published.
From Our Partners